Time;durP1;ratioP1;P1;durP2;ratioP2;P2;SDS_P1;SDS_P2;PMS_P1;PMS_P2;Temp;Humidity;BMP_temperature;BMP_pressure;BME280_temperature;BME280_humidity;BME280_pressure;Samples;Min_cycle;Max_cycle;Signal;HPM_P1;HPM_P2
2022/02/18 00:01:38;;;;;;;14.95;2.70;;;13.50;62.60;;;;;;4862596;29;20054;-74
2022/02/18 00:04:04;;;;;;;13.50;2.65;;;13.50;62.70;;;;;;4847045;29;20054;-75
2022/02/18 00:06:30;;;;;;;12.35;2.22;;;13.50;62.70;;;;;;4863882;29;20065;-76
2022/02/18 00:08:57;;;;;;;11.82;2.28;;;13.50;62.80;;;;;;4862572;29;20045;-75
2022/02/18 00:11:23;;;;;;;10.27;2.35;;;13.50;62.70;;;;;;4863711;29;20050;-76
2022/02/18 00:13:49;;;;;;;11.50;1.90;;;13.50;62.60;;;;;;4862364;29;20466;-76
2022/02/18 00:16:15;;;;;;;10.48;2.28;;;13.50;62.60;;;;;;4862275;29;20053;-75
2022/02/18 00:18:40;;;;;;;8.30;2.08;;;13.50;62.60;;;;;;4846322;29;20053;-76
2022/02/18 00:21:07;;;;;;;10.63;2.28;;;13.60;62.60;;;;;;4862587;29;20049;-76
2022/02/18 00:23:33;;;;;;;12.73;2.45;;;13.50;62.50;;;;;;4863017;29;20144;-77
2022/02/18 00:25:58;;;;;;;8.20;2.03;;;13.50;62.50;;;;;;4862260;29;20120;-74
2022/02/18 00:28:24;;;;;;;8.27;2.35;;;13.60;62.60;;;;;;4863827;29;20060;-76
2022/02/18 00:30:50;;;;;;;10.48;2.53;;;13.60;62.50;;;;;;4862160;29;20041;-75
2022/02/18 00:33:16;;;;;;;11.88;2.08;;;13.60;62.50;;;;;;4863433;29;20340;-75
2022/02/18 00:35:42;;;;;;;8.10;2.33;;;13.60;62.50;;;;;;4862196;29;20464;-75
2022/02/18 00:38:07;;;;;;;8.55;1.75;;;13.50;62.40;;;;;;4863400;29;20057;-76
2022/02/18 00:40:34;;;;;;;13.13;2.70;;;13.60;62.40;;;;;;4863010;29;20128;-76
2022/02/18 00:43:00;;;;;;;9.57;1.98;;;13.60;62.40;;;;;;4862226;29;20096;-76
2022/02/18 00:45:26;;;;;;;10.82;2.42;;;13.60;62.40;;;;;;4861981;29;20099;-77
2022/02/18 00:47:52;;;;;;;10.80;1.98;;;13.50;62.40;;;;;;4862341;29;20054;-75
2022/02/18 00:50:22;;;;;;;9.48;2.42;;;13.50;62.40;;;;;;4862288;29;20054;-77
2022/02/18 00:52:49;;;;;;;8.20;1.80;;;13.50;62.30;;;;;;4863348;29;20049;-75
2022/02/18 00:55:15;;;;;;;10.18;1.98;;;13.50;62.50;;;;;;4862918;29;20049;-75
2022/02/18 00:57:41;;;;;;;9.98;2.33;;;13.50;62.30;;;;;;4846575;29;20439;-76
2022/02/18 01:00:08;;;;;;;7.78;1.67;;;13.50;62.30;;;;;;4861782;29;20061;-75
2022/02/18 01:02:34;;;;;;;11.35;2.08;;;13.50;62.30;;;;;;4847196;29;20147;-74
2022/02/18 01:05:00;;;;;;;7.70;2.28;;;13.50;62.30;;;;;;4861465;29;20068;-74
2022/02/18 01:07:26;;;;;;;8.35;2.58;;;13.50;62.30;;;;;;4863198;29;20057;-74
2022/02/18 01:09:54;;;;;;;10.75;1.70;;;13.40;62.20;;;;;;4862009;29;20053;-74
2022/02/18 01:12:21;;;;;;;6.38;1.88;;;13.40;62.20;;;;;;4861817;29;20094;-77
2022/02/18 01:14:48;;;;;;;11.95;2.40;;;13.40;62.30;;;;;;4861809;29;20057;-76
2022/02/18 01:17:14;;;;;;;8.13;2.13;;;13.30;62.30;;;;;;4862845;29;20053;-78
2022/02/18 01:19:40;;;;;;;9.32;2.20;;;13.40;62.40;;;;;;4861598;29;20054;-74
2022/02/18 01:22:05;;;;;;;5.82;1.60;;;13.40;62.30;;;;;;4862503;29;20106;-75
2022/02/18 01:24:31;;;;;;;9.55;1.98;;;13.40;62.30;;;;;;4862677;29;20046;-75
2022/02/18 01:26:57;;;;;;;7.90;1.80;;;13.40;62.20;;;;;;4861732;29;20428;-74
2022/02/18 01:29:23;;;;;;;9.85;1.85;;;13.50;62.20;;;;;;4864264;29;20053;-75
2022/02/18 01:31:48;;;;;;;7.97;1.83;;;13.50;62.20;;;;;;4866020;29;20114;-78
2022/02/18 01:34:15;;;;;;;8.32;2.03;;;13.50;62.20;;;;;;4865403;29;20355;-74
2022/02/18 01:36:40;;;;;;;8.90;1.90;;;13.50;62.20;;;;;;4865087;29;20049;-75
2022/02/18 01:39:07;;;;;;;5.80;1.30;;;13.50;62.10;;;;;;4866182;29;20065;-75
2022/02/18 01:41:33;;;;;;;9.65;2.22;;;13.50;62.20;;;;;;4865932;29;20135;-76
2022/02/18 01:44:00;;;;;;;8.32;1.95;;;13.50;62.10;;;;;;4866038;29;20136;-74
2022/02/18 01:46:26;;;;;;;5.50;1.08;;;13.50;62.10;;;;;;4865260;29;20049;-77
2022/02/18 01:48:54;;;;;;;6.97;1.13;;;13.40;62.10;;;;;;4865505;29;20061;-76
2022/02/18 01:51:22;;;;;;;6.43;1.83;;;13.50;62.10;;;;;;4864613;29;20132;-76
2022/02/18 01:53:52;;;;;;;7.00;1.17;;;13.40;62.00;;;;;;4865895;29;20046;-77
2022/02/18 01:56:22;;;;;;;10.10;2.17;;;13.40;62.00;;;;;;4864963;29;20057;-75
2022/02/18 01:58:48;;;;;;;7.60;2.10;;;13.40;62.00;;;;;;4866133;29;20331;-76
2022/02/18 02:01:15;;;;;;;8.57;1.90;;;13.40;62.20;;;;;;4865798;29;20060;-74
2022/02/18 02:03:41;;;;;;;8.05;1.40;;;13.40;62.20;;;;;;4865700;29;20397;-75
2022/02/18 02:06:08;;;;;;;6.40;1.85;;;13.40;62.10;;;;;;4864838;29;20141;-77
2022/02/18 02:08:35;;;;;;;6.15;1.73;;;13.40;62.10;;;;;;4865711;29;20088;-76
2022/02/18 02:11:01;;;;;;;9.27;1.50;;;13.40;62.00;;;;;;4864832;29;20092;-75
2022/02/18 02:13:36;;;;;;;6.15;1.45;;;13.40;62.10;;;;;;4865045;29;20084;-74
2022/02/18 02:16:03;;;;;;;5.90;1.70;;;13.40;61.90;;;;;;4864679;29;20061;-76
2022/02/18 02:18:29;;;;;;;4.47;1.13;;;13.40;61.90;;;;;;4865343;29;20114;-75
2022/02/18 02:20:55;;;;;;;7.68;1.40;;;13.40;62.00;;;;;;4864840;29;20371;-77
2022/02/18 02:23:21;;;;;;;6.55;1.48;;;13.40;62.00;;;;;;4864344;29;20053;-74
2022/02/18 02:25:47;;;;;;;5.50;1.23;;;13.40;62.00;;;;;;4848711;29;20126;-76
2022/02/18 02:28:13;;;;;;;6.70;1.33;;;13.30;62.00;;;;;;4864895;29;20054;-75
2022/02/18 02:30:39;;;;;;;3.65;0.80;;;13.30;62.00;;;;;;4864796;29;20177;-76
2022/02/18 02:33:05;;;;;;;7.70;1.48;;;13.30;62.00;;;;;;4865678;29;20187;-76
2022/02/18 02:35:31;;;;;;;8.60;1.40;;;13.30;61.90;;;;;;4864083;29;20137;-74
2022/02/18 02:37:56;;;;;;;8.50;1.17;;;13.30;62.00;;;;;;4865036;29;20054;-77
2022/02/18 02:40:22;;;;;;;4.88;1.23;;;13.30;62.30;;;;;;4863973;29;20064;-75
2022/02/18 02:42:48;;;;;;;6.65;1.80;;;13.30;62.00;;;;;;4863987;29;20049;-76
2022/02/18 02:45:16;;;;;;;7.70;1.30;;;13.30;62.00;;;;;;4865039;29;20398;-75
2022/02/18 02:47:46;;;;;;;5.15;0.93;;;13.30;62.00;;;;;;4864301;29;20092;-75
2022/02/18 02:50:16;;;;;;;5.63;1.50;;;13.30;62.00;;;;;;4864831;29;20081;-76
2022/02/18 02:52:42;;;;;;;5.90;1.30;;;13.40;62.10;;;;;;4864535;29;20316;-74
2022/02/18 02:55:10;;;;;;;5.13;1.10;;;13.40;62.00;;;;;;4865087;29;20065;-76
2022/02/18 02:57:37;;;;;;;8.18;1.52;;;13.30;62.00;;;;;;4863974;29;20100;-74
2022/02/18 03:00:04;;;;;;;7.13;1.42;;;13.40;62.10;;;;;;4863900;29;20061;-73
2022/02/18 03:02:30;;;;;;;6.35;1.33;;;13.40;62.10;;;;;;4864014;29;20049;-75
2022/02/18 03:04:56;;;;;;;5.03;0.90;;;13.40;62.10;;;;;;4863446;29;20421;-77
2022/02/18 03:07:21;;;;;;;6.70;1.33;;;13.30;62.10;;;;;;4864656;29;20360;-75
2022/02/18 03:09:47;;;;;;;7.20;1.60;;;13.30;62.20;;;;;;4864043;29;20057;-74
2022/02/18 03:12:13;;;;;;;6.57;1.23;;;13.40;62.20;;;;;;4863696;29;20050;-74
2022/02/18 03:14:38;;;;;;;3.65;1.15;;;13.40;62.20;;;;;;4864434;29;20053;-75
2022/02/18 03:17:04;;;;;;;5.78;1.10;;;13.40;62.10;;;;;;4863690;29;20057;-76
2022/02/18 03:19:30;;;;;;;6.80;1.38;;;13.40;62.20;;;;;;4863538;29;20482;-77
2022/02/18 03:21:56;;;;;;;5.38;1.40;;;13.40;62.10;;;;;;4864423;29;20064;-75
2022/02/18 03:24:22;;;;;;;8.27;1.55;;;13.40;62.10;;;;;;4863502;29;20056;-75
2022/02/18 03:26:48;;;;;;;4.97;1.20;;;13.40;62.10;;;;;;4864373;29;20057;-76
2022/02/18 03:29:14;;;;;;;4.38;1.00;;;13.40;62.10;;;;;;4863652;29;20363;-76
2022/02/18 03:31:39;;;;;;;5.57;1.05;;;13.40;62.20;;;;;;4863454;29;20061;-77
2022/02/18 03:34:05;;;;;;;4.40;1.33;;;13.40;62.20;;;;;;4863127;29;20466;-77
2022/02/18 03:36:31;;;;;;;6.20;1.20;;;13.40;62.20;;;;;;4863973;29;20060;-76
2022/02/18 03:38:57;;;;;;;8.32;0.93;;;13.40;62.30;;;;;;4863616;29;20485;-76
2022/02/18 03:41:22;;;;;;;4.03;1.30;;;13.30;62.30;;;;;;4863225;29;20053;-76
2022/02/18 03:43:48;;;;;;;5.18;0.82;;;13.30;62.40;;;;;;4864232;29;20372;-75
2022/02/18 03:46:14;;;;;;;5.65;1.35;;;13.30;62.50;;;;;;4863240;29;20053;-76
2022/02/18 03:48:40;;;;;;;4.55;0.75;;;13.20;62.50;;;;;;4863951;29;20065;-76
2022/02/18 03:51:06;;;;;;;5.15;1.42;;;13.30;62.60;;;;;;4862990;29;20417;-75
2022/02/18 03:53:31;;;;;;;5.60;1.05;;;13.20;62.50;;;;;;4863435;29;20050;-75
2022/02/18 03:56:01;;;;;;;8.07;0.90;;;13.20;62.50;;;;;;4862954;29;20049;-77
2022/02/18 03:58:27;;;;;;;4.63;0.70;;;13.20;62.50;;;;;;4862978;29;20471;-75
2022/02/18 04:00:53;;;;;;;5.55;0.98;;;13.20;62.50;;;;;;4863707;29;20114;-75
2022/02/18 04:03:20;;;;;;;4.68;1.08;;;13.20;62.60;;;;;;4862428;29;20057;-75
2022/02/18 04:05:46;;;;;;;4.32;1.00;;;13.20;62.60;;;;;;4862663;29;20057;-75
2022/02/18 04:08:13;;;;;;;4.75;1.02;;;13.20;62.60;;;;;;4863832;29;20053;-76
2022/02/18 04:10:39;;;;;;;4.18;0.95;;;13.10;62.50;;;;;;4863767;29;20056;-75
2022/02/18 04:13:05;;;;;;;4.30;1.10;;;13.10;62.50;;;;;;4863380;29;20375;-76
2022/02/18 04:15:31;;;;;;;4.07;0.80;;;13.20;62.60;;;;;;4862450;29;20045;-78
2022/02/18 04:17:56;;;;;;;5.57;0.70;;;13.20;62.50;;;;;;4862576;29;20056;-75
2022/02/18 04:20:23;;;;;;;4.28;0.70;;;13.20;62.50;;;;;;4862377;29;20084;-74
2022/02/18 04:22:49;;;;;;;3.67;0.88;;;13.20;62.50;;;;;;4862514;29;20128;-75
2022/02/18 04:25:15;;;;;;;6.07;1.15;;;13.10;62.40;;;;;;4862648;29;20576;-78
2022/02/18 04:27:40;;;;;;;4.88;0.70;;;13.10;62.50;;;;;;4863280;29;20045;-75
2022/02/18 04:30:07;;;;;;;3.72;0.60;;;13.10;62.50;;;;;;4846930;29;20483;-77
2022/02/18 04:32:33;;;;;;;4.88;0.88;;;13.10;62.50;;;;;;4862304;29;20053;-74
2022/02/18 04:34:59;;;;;;;3.88;0.95;;;13.10;62.50;;;;;;4862104;29;20057;-76
2022/02/18 04:37:25;;;;;;;4.03;1.00;;;13.10;62.50;;;;;;4846610;29;20495;-75
2022/02/18 04:39:51;;;;;;;7.47;0.95;;;13.10;62.50;;;;;;4862872;29;20045;-76
2022/02/18 04:42:18;;;;;;;4.55;1.08;;;13.10;62.60;;;;;;4863157;29;20052;-75
2022/02/18 04:44:44;;;;;;;5.72;1.33;;;13.10;62.70;;;;;;4862846;29;20072;-75
2022/02/18 04:47:09;;;;;;;4.57;0.75;;;13.10;62.70;;;;;;4862237;29;20054;-76
2022/02/18 04:49:35;;;;;;;4.47;0.80;;;13.10;62.70;;;;;;4861783;29;20060;-76
2022/02/18 04:52:01;;;;;;;3.35;0.80;;;13.00;62.80;;;;;;4862605;29;20132;-76
2022/02/18 04:54:26;;;;;;;3.97;1.27;;;13.00;62.90;;;;;;4861735;29;20052;-74
2022/02/18 04:56:52;;;;;;;9.45;1.30;;;13.00;62.90;;;;;;4862089;29;20053;-75
2022/02/18 04:59:19;;;;;;;3.70;0.82;;;13.00;63.00;;;;;;4863139;29;20050;-74
2022/02/18 05:01:45;;;;;;;7.88;1.40;;;13.00;63.00;;;;;;4862759;29;20059;-74
2022/02/18 05:04:11;;;;;;;8.60;1.08;;;13.00;63.10;;;;;;4859589;29;20209;-77
2022/02/18 05:06:36;;;;;;;3.95;1.13;;;13.00;63.10;;;;;;4857332;29;20074;-75
2022/02/18 05:09:02;;;;;;;6.80;1.20;;;13.00;63.20;;;;;;4853310;29;20105;-76
2022/02/18 05:11:28;;;;;;;4.78;0.98;;;12.90;63.30;;;;;;4851181;29;20056;-75
2022/02/18 05:13:54;;;;;;;4.82;1.02;;;13.00;63.50;;;;;;4860726;29;20072;-77
2022/02/18 05:16:20;;;;;;;8.10;1.73;;;13.00;63.20;;;;;;4855036;29;20064;-76
2022/02/18 05:18:47;;;;;;;5.03;1.10;;;13.10;62.80;;;;;;4862753;29;20052;-76
2022/02/18 05:21:17;;;;;;;6.28;1.33;;;13.20;62.30;;;;;;4862233;29;20053;-78
2022/02/18 05:23:44;;;;;;;7.03;1.65;;;13.30;61.90;;;;;;4862515;29;20068;-77
2022/02/18 05:26:09;;;;;;;6.43;1.50;;;13.30;61.50;;;;;;4863128;29;20092;-73
2022/02/18 05:28:35;;;;;;;5.47;1.52;;;13.40;61.40;;;;;;4861437;29;20449;-76
2022/02/18 05:31:01;;;;;;;6.60;1.25;;;13.40;61.40;;;;;;4862460;29;20049;-75
2022/02/18 05:33:27;;;;;;;9.98;1.58;;;13.40;61.70;;;;;;4861637;29;20072;-73
2022/02/18 05:35:52;;;;;;;6.43;1.77;;;13.40;61.60;;;;;;4862039;29;20057;-74
2022/02/18 05:38:18;;;;;;;7.20;1.63;;;13.40;61.50;;;;;;4862303;29;20049;-74
2022/02/18 05:40:44;;;;;;;6.60;1.30;;;13.50;61.60;;;;;;4861689;29;20133;-73
2022/02/18 05:43:10;;;;;;;5.18;1.27;;;13.70;61.70;;;;;;4861540;29;20413;-72
2022/02/18 05:45:35;;;;;;;8.88;1.75;;;13.90;61.80;;;;;;4863035;29;20133;-70
2022/02/18 05:48:01;;;;;;;5.82;1.27;;;14.20;61.70;;;;;;4861581;29;20455;-73
2022/02/18 05:50:27;;;;;;;17.45;2.40;;;14.50;62.10;;;;;;4874306;29;20113;-72
2022/02/18 05:52:52;;;;;;;4.43;1.25;;;14.60;62.30;;;;;;4864974;29;20363;-74
2022/02/18 05:55:18;;;;;;;11.27;1.75;;;14.40;63.20;;;;;;4844220;29;20125;-74
2022/02/18 05:57:44;;;;;;;8.63;1.70;;;14.70;62.80;;;;;;4844526;29;20448;-72
2022/02/18 06:00:10;;;;;;;6.97;1.73;;;14.80;62.80;;;;;;4844587;29;20074;-73
2022/02/18 06:02:36;;;;;;;13.50;1.52;;;15.00;63.10;;;;;;4842873;29;20099;-74
2022/02/18 06:05:06;;;;;;;7.57;1.60;;;15.00;63.10;;;;;;4843151;29;20054;-71
2022/02/18 06:07:31;;;;;;;5.78;1.42;;;15.20;63.30;;;;;;4842717;29;20065;-73
2022/02/18 06:09:57;;;;;;;7.85;1.75;;;15.20;63.40;;;;;;4862078;29;20054;-75
2022/02/18 06:12:23;;;;;;;10.35;1.58;;;15.30;63.40;;;;;;4862229;29;20056;-75
2022/02/18 06:14:50;;;;;;;7.88;1.55;;;15.30;63.50;;;;;;4861738;29;20089;-75
2022/02/18 06:17:18;;;;;;;6.43;1.17;;;15.40;63.60;;;;;;4864333;29;20097;-76
2022/02/18 06:19:44;;;;;;;7.50;1.80;;;15.50;63.80;;;;;;4868708;29;20089;-75
2022/02/18 06:22:10;;;;;;;10.73;1.42;;;15.50;63.70;;;;;;4864827;29;20056;-75
2022/02/18 06:24:37;;;;;;;5.85;1.35;;;15.70;63.80;;;;;;4865542;29;20053;-75
2022/02/18 06:27:04;;;;;;;10.73;1.67;;;15.80;63.60;;;;;;4865296;29;20065;-75
2022/02/18 06:29:29;;;;;;;11.07;2.20;;;15.90;63.40;;;;;;4863458;29;20125;-74
2022/02/18 06:31:57;;;;;;;5.70;1.33;;;16.10;63.10;;;;;;4859031;29;20258;-75
2022/02/18 06:34:25;;;;;;;12.57;1.73;;;16.20;62.80;;;;;;4865014;29;20485;-75
2022/02/18 06:36:51;;;;;;;13.73;2.22;;;16.30;62.60;;;;;;4863944;29;20053;-77
2022/02/18 06:39:21;;;;;;;12.48;1.85;;;16.40;62.40;;;;;;4861461;29;20057;-75
2022/02/18 06:41:48;;;;;;;13.57;1.90;;;16.50;62.40;;;;;;4864130;29;20080;-75
2022/02/18 06:44:14;;;;;;;10.98;1.75;;;16.60;62.20;;;;;;4860852;29;20053;-77
2022/02/18 06:46:41;;;;;;;11.10;1.55;;;16.70;61.90;;;;;;4864671;29;20053;-76
2022/02/18 06:49:07;;;;;;;11.80;1.80;;;16.70;61.80;;;;;;4864978;29;20140;-75
2022/02/18 06:51:33;;;;;;;10.80;1.88;;;16.70;61.80;;;;;;4864482;29;20140;-78
2022/02/18 06:53:59;;;;;;;19.67;2.60;;;16.70;61.90;;;;;;4864576;29;20061;-75
2022/02/18 06:56:30;;;;;;;17.02;2.25;;;16.70;62.00;;;;;;4864147;29;20455;-81
2022/02/18 06:58:57;;;;;;;10.65;1.77;;;16.80;62.00;;;;;;4863968;29;20046;-78
2022/02/18 07:01:23;;;;;;;10.88;1.88;;;16.80;62.60;;;;;;4863283;29;20058;-77
2022/02/18 07:03:49;;;;;;;16.85;2.22;;;16.80;61.80;;;;;;4863957;29;20086;-76
2022/02/18 07:06:14;;;;;;;13.82;2.10;;;16.80;61.90;;;;;;4863644;29;20096;-75
2022/02/18 07:08:40;;;;;;;9.52;1.83;;;16.30;60.20;;;;;;4863515;29;20089;-74
2022/02/18 07:11:06;;;;;;;11.07;2.45;;;16.30;62.60;;;;;;4863405;29;20083;-74
2022/02/18 07:13:32;;;;;;;13.25;2.92;;;16.40;62.20;;;;;;4864464;29;20351;-75
2022/02/18 07:15:58;;;;;;;16.75;2.60;;;16.40;61.50;;;;;;4864103;29;20042;-76
2022/02/18 07:18:24;;;;;;;12.75;1.95;;;16.50;60.90;;;;;;4864446;29;20053;-75
2022/02/18 07:20:50;;;;;;;10.80;2.28;;;16.50;60.70;;;;;;4863328;29;20065;-75
2022/02/18 07:23:16;;;;;;;9.50;2.17;;;16.50;60.60;;;;;;4864350;29;20053;-74
2022/02/18 07:25:42;;;;;;;7.50;1.80;;;16.50;60.50;;;;;;4864558;29;20050;-76
2022/02/18 07:28:07;;;;;;;10.00;2.03;;;16.40;60.40;;;;;;4863734;29;20375;-76
2022/02/18 07:30:33;;;;;;;9.27;2.33;;;16.40;60.40;;;;;;4862853;29;20057;-76
2022/02/18 07:32:59;;;;;;;9.77;2.20;;;16.30;60.40;;;;;;4864125;29;20045;-74
2022/02/18 07:35:31;;;;;;;8.52;1.88;;;16.30;60.30;;;;;;4862588;29;20470;-74
2022/02/18 07:37:59;;;;;;;16.52;2.35;;;16.20;60.40;;;;;;4857018;29;20416;-77
2022/02/18 07:40:25;;;;;;;10.52;2.47;;;16.30;60.60;;;;;;4863950;29;20049;-76
2022/02/18 07:42:50;;;;;;;10.20;2.50;;;16.20;60.70;;;;;;4863902;29;20057;-75
2022/02/18 07:45:16;;;;;;;10.65;2.78;;;16.20;61.00;;;;;;4863636;29;20067;-75
2022/02/18 07:47:42;;;;;;;9.38;2.45;;;16.20;61.40;;;;;;4855990;29;20086;-71
2022/02/18 07:50:08;;;;;;;8.85;2.35;;;16.10;61.70;;;;;;4870522;29;20148;-77
2022/02/18 07:52:36;;;;;;;9.32;2.08;;;16.20;61.90;;;;;;4862877;29;20061;-76
2022/02/18 07:55:02;;;;;;;10.15;2.33;;;16.20;62.10;;;;;;4862573;29;20455;-79
2022/02/18 07:57:27;;;;;;;8.23;1.95;;;16.20;62.20;;;;;;4855847;29;20069;-77
2022/02/18 07:59:53;;;;;;;9.25;2.45;;;16.20;62.40;;;;;;4844198;29;20057;-77
2022/02/18 08:02:19;;;;;;;21.50;2.78;;;16.20;62.40;;;;;;4844714;29;20053;-78
2022/02/18 08:04:44;;;;;;;16.50;2.88;;;16.10;62.60;;;;;;4843766;29;20081;-77
2022/02/18 08:07:11;;;;;;;12.57;2.45;;;16.10;62.70;;;;;;4845210;29;20060;-74
2022/02/18 08:09:37;;;;;;;12.43;2.97;;;16.10;62.90;;;;;;4860213;29;20049;-76
2022/02/18 08:12:03;;;;;;;19.50;2.45;;;16.10;62.80;;;;;;4863262;29;20060;-76
2022/02/18 08:14:29;;;;;;;25.02;3.53;;;16.10;63.00;;;;;;4863381;29;20073;-75
2022/02/18 08:16:55;;;;;;;33.38;3.70;;;16.10;63.00;;;;;;4862346;29;20446;-73
2022/02/18 08:19:21;;;;;;;19.92;3.53;;;16.00;63.10;;;;;;4858239;29;20053;-74
2022/02/18 08:21:47;;;;;;;22.85;3.22;;;16.00;63.30;;;;;;4854196;29;20065;-75
2022/02/18 08:24:17;;;;;;;20.40;3.92;;;16.00;63.10;;;;;;4850098;29;20053;-77
2022/02/18 08:26:48;;;;;;;14.90;3.55;;;16.00;63.10;;;;;;4858116;29;20050;-73
2022/02/18 08:29:18;;;;;;;15.43;3.22;;;16.10;62.90;;;;;;4860054;29;20053;-77
2022/02/18 08:31:44;;;;;;;16.00;2.75;;;16.00;62.60;;;;;;4862455;29;20132;-77
2022/02/18 08:34:09;;;;;;;13.80;3.08;;;16.10;62.80;;;;;;4861242;29;20198;-75
2022/02/18 08:36:36;;;;;;;20.17;3.58;;;16.10;62.60;;;;;;4863631;29;20057;-78
2022/02/18 08:39:03;;;;;;;16.58;3.25;;;16.00;62.70;;;;;;4873937;29;20060;-80
2022/02/18 08:41:30;;;;;;;14.20;2.60;;;16.00;62.80;;;;;;4860153;29;20046;-81
2022/02/18 08:43:58;;;;;;;18.02;3.10;;;16.00;62.90;;;;;;4848264;29;20053;-76
2022/02/18 08:46:27;;;;;;;20.20;3.67;;;16.00;62.90;;;;;;4854224;29;20061;-76
2022/02/18 08:48:53;;;;;;;20.83;3.88;;;16.00;61.80;;;;;;4853572;29;20158;-74
2022/02/18 08:51:19;;;;;;;16.23;3.08;;;16.00;62.90;;;;;;4843170;29;20535;-76
2022/02/18 08:53:45;;;;;;;15.52;2.60;;;16.00;63.10;;;;;;4843260;29;20052;-74
2022/02/18 08:56:11;;;;;;;20.63;2.78;;;16.00;63.20;;;;;;4850617;29;20054;-75
2022/02/18 08:58:38;;;;;;;19.30;3.13;;;16.10;63.20;;;;;;4844599;29;20058;-76
2022/02/18 09:01:03;;;;;;;17.02;3.28;;;16.00;63.20;;;;;;4846366;29;20125;-75
2022/02/18 09:03:30;;;;;;;12.23;2.72;;;16.10;63.10;;;;;;4852175;29;20459;-76
2022/02/18 09:05:56;;;;;;;12.05;2.38;;;16.20;63.00;;;;;;4844218;29;20474;-75
2022/02/18 09:08:24;;;;;;;14.77;3.22;;;16.30;63.10;;;;;;4851068;29;20053;-74
2022/02/18 09:10:54;;;;;;;13.20;3.00;;;16.30;63.20;;;;;;4861626;29;20116;-75
2022/02/18 09:13:21;;;;;;;9.65;2.20;;;16.30;63.40;;;;;;4857751;29;20114;-75
2022/02/18 09:15:47;;;;;;;10.43;1.70;;;16.20;63.30;;;;;;4852281;29;20058;-77
2022/02/18 09:18:13;;;;;;;20.33;2.90;;;16.30;63.60;;;;;;4846031;29;20355;-77
2022/02/18 09:20:39;;;;;;;12.52;1.75;;;16.30;63.70;;;;;;4850789;29;20113;-75
2022/02/18 09:23:06;;;;;;;12.27;2.78;;;16.30;63.80;;;;;;4850973;29;20061;-75
2022/02/18 09:25:32;;;;;;;13.55;2.35;;;16.30;63.80;;;;;;4854312;29;20053;-74
2022/02/18 09:27:59;;;;;;;10.68;2.33;;;16.40;63.80;;;;;;4856654;29;20046;-74
2022/02/18 09:30:25;;;;;;;11.43;2.08;;;16.40;63.90;;;;;;4851745;29;20110;-76
2022/02/18 09:32:52;;;;;;;14.85;2.50;;;16.30;64.00;;;;;;4843176;29;20058;-74
2022/02/18 09:35:18;;;;;;;7.63;1.83;;;16.30;64.00;;;;;;4844151;29;20413;-75
2022/02/18 09:37:44;;;;;;;8.00;1.80;;;16.30;64.00;;;;;;4843538;29;20145;-70
2022/02/18 09:40:12;;;;;;;10.75;2.33;;;16.30;64.10;;;;;;4852235;29;20053;-72
2022/02/18 09:42:41;;;;;;;7.03;1.90;;;16.30;64.10;;;;;;4861787;29;20060;-75
2022/02/18 09:45:07;;;;;;;9.07;1.75;;;16.30;64.20;;;;;;4855429;29;20091;-76
2022/02/18 09:47:34;;;;;;;12.27;2.08;;;16.30;64.20;;;;;;4844676;29;20050;-74
2022/02/18 09:50:01;;;;;;;13.23;1.88;;;16.20;64.20;;;;;;4845282;29;20053;-73
2022/02/18 09:52:28;;;;;;;7.63;1.65;;;16.30;64.30;;;;;;4864874;29;20132;-73
2022/02/18 09:54:53;;;;;;;8.25;2.10;;;16.20;64.40;;;;;;4865692;29;20102;-74
2022/02/18 09:57:20;;;;;;;7.93;1.83;;;16.30;64.40;;;;;;4865783;29;20413;-74
2022/02/18 09:59:47;;;;;;;7.43;1.65;;;16.20;64.30;;;;;;4865844;29;20041;-76
2022/02/18 10:02:14;;;;;;;6.78;1.60;;;16.20;64.40;;;;;;4865523;29;20092;-74
2022/02/18 10:04:40;;;;;;;5.65;1.88;;;16.20;64.70;;;;;;4876944;29;20490;-78
2022/02/18 10:07:06;;;;;;;8.25;1.90;;;16.20;64.50;;;;;;4871754;29;20132;-73
2022/02/18 10:09:39;;;;;;;11.95;2.30;;;15.90;62.30;;;;;;4872765;29;20068;-73
2022/02/18 10:12:05;;;;;;;5.93;2.50;;;15.70;65.20;;;;;;4865770;29;20488;-74
2022/02/18 10:14:59;;;;;;;6.25;1.70;;;15.80;66.00;;;;;;4865305;29;20053;-80
2022/02/18 10:17:45;;;;;;;;;;;15.90;66.70;;;;;;4865882;29;20056;-75
2022/02/18 10:20:22;;;;;;;6.38;1.90;;;15.90;66.60;;;;;;4863615;29;19924;-76
2022/02/18 10:22:56;;;;;;;4.13;1.65;;;16.00;66.30;;;;;;4863493;29;20053;-76
2022/02/18 10:25:28;;;;;;;7.30;2.20;;;16.00;65.80;;;;;;4865186;29;20041;-75
2022/02/18 10:27:55;;;;;;;10.98;2.13;;;16.10;66.40;;;;;;4863799;29;20173;-76
2022/02/18 10:30:26;;;;;;;8.10;1.55;;;16.10;66.20;;;;;;4846939;29;20519;-76
2022/02/18 10:32:53;;;;;;;8.63;2.15;;;16.20;66.00;;;;;;4846503;29;20451;-77
2022/02/18 10:35:22;;;;;;;7.68;2.00;;;16.20;65.80;;;;;;4846609;29;20065;-74
2022/02/18 10:37:51;;;;;;;6.10;1.33;;;16.20;65.70;;;;;;4845674;29;20057;-75
2022/02/18 10:40:18;;;;;;;6.50;1.50;;;16.20;65.60;;;;;;4846563;29;20049;-74
2022/02/18 10:42:46;;;;;;;4.72;1.42;;;16.10;65.40;;;;;;4845793;29;20140;-74
2022/02/18 10:45:23;;;;;;;4.13;1.48;;;16.10;65.40;;;;;;4846582;29;20135;-74
2022/02/18 10:48:13;;;;;;;5.63;1.20;;;16.10;65.30;;;;;;4865242;29;20479;-74
2022/02/18 10:50:39;;;;;;;6.20;1.20;;;16.10;65.80;;;;;;4864231;29;20045;-74
2022/02/18 10:53:11;;;;;;;2.88;1.25;;;16.00;65.20;;;;;;4864406;29;20046;-76
2022/02/18 10:55:52;;;;;;;6.32;1.48;;;16.00;65.20;;;;;;4861497;29;20398;-74
2022/02/18 10:58:23;;;;;;;8.90;1.63;;;16.00;65.40;;;;;;4864716;29;20061;-78
2022/02/18 11:01:13;;;;;;;12.55;1.58;;;16.00;65.90;;;;;;4862962;29;20069;-75
2022/02/18 11:03:44;;;;;;;8.40;1.73;;;16.00;65.80;;;;;;4864025;29;20200;-75
2022/02/18 11:06:24;;;;;;;12.00;1.83;;;16.10;66.00;;;;;;4863348;29;20486;-75
2022/02/18 11:09:00;;;;;;;11.85;2.03;;;16.30;66.40;;;;;;4864344;29;20050;-76
2022/02/18 11:11:36;;;;;;;7.32;1.50;;;16.40;66.30;;;;;;4864293;29;20052;-76
2022/02/18 11:14:04;;;;;;;7.55;1.58;;;16.50;66.10;;;;;;4863465;29;20439;-74
2022/02/18 11:16:34;;;;;;;8.88;1.35;;;16.60;65.80;;;;;;4864575;29;20049;-76
2022/02/18 11:18:59;;;;;;;10.55;1.77;;;16.70;65.60;;;;;;4864323;29;20061;-77
2022/02/18 11:21:28;;;;;;;13.00;1.88;;;16.70;65.60;;;;;;4845035;29;20049;-75
2022/02/18 11:23:56;;;;;;;7.20;1.23;;;16.70;64.40;;;;;;4863382;29;20053;-77
2022/02/18 11:26:23;;;;;;;12.25;1.65;;;16.80;65.20;;;;;;4864954;29;20068;-77
2022/02/18 11:28:50;;;;;;;6.47;1.52;;;16.90;65.30;;;;;;4864760;29;20431;-78
2022/02/18 11:31:23;;;;;;;7.60;1.50;;;16.90;65.20;;;;;;4863905;29;20106;-83
2022/02/18 11:34:36;;;;;;;4.60;1.50;;;16.90;65.00;;;;;;4864091;29;20400;-77
2022/02/18 11:37:13;;;;;;;4.65;0.93;;;17.00;64.90;;;;;;4871522;29;20382;-79
2022/02/18 11:39:58;;;;;;;10.45;1.33;;;17.10;65.20;;;;;;4845523;29;20425;-79
2022/02/18 11:42:41;;;;;;;6.80;1.02;;;17.10;65.20;;;;;;4843351;29;20363;-75
2022/02/18 11:45:15;;;;;;;9.95;1.15;;;17.20;65.60;;;;;;4862984;29;20137;-76
2022/02/18 11:47:41;;;;;;;5.95;1.17;;;17.30;65.70;;;;;;4845299;29;20114;-76
2022/02/18 11:50:12;;;;;;;6.43;1.33;;;17.40;65.40;;;;;;4844273;29;20091;-81
2022/02/18 11:52:44;;;;;;;8.32;0.82;;;17.40;65.40;;;;;;4858041;29;20136;-75
2022/02/18 11:55:28;;;;;;;5.95;0.98;;;17.50;65.30;;;;;;4863502;29;20455;-78
2022/02/18 11:57:58;;;;;;;8.88;1.58;;;17.60;65.80;;;;;;4863547;29;20078;-78
2022/02/18 12:00:49;;;;;;;10.10;1.17;;;17.60;65.70;;;;;;4863333;29;20049;-78
2022/02/18 12:03:22;;;;;;;4.05;0.63;;;17.70;65.80;;;;;;4863296;29;20101;-77
2022/02/18 12:06:08;;;;;;;7.45;1.73;;;17.70;65.70;;;;;;4863382;29;20080;-78
2022/02/18 12:08:39;;;;;;;11.02;1.80;;;17.70;65.90;;;;;;4863465;29;20141;-78
2022/02/18 12:11:16;;;;;;;6.93;1.10;;;17.70;65.90;;;;;;4862247;29;20451;-78
2022/02/18 12:13:57;;;;;;;3.47;0.70;;;17.70;65.80;;;;;;4862282;29;20088;-77
2022/02/18 12:16:25;;;;;;;7.47;1.17;;;17.70;65.90;;;;;;4861797;29;20061;-76
2022/02/18 12:19:09;;;;;;;6.93;0.85;;;17.60;65.80;;;;;;4844681;29;20062;-77
2022/02/18 12:21:56;;;;;;;6.95;1.40;;;17.40;66.10;;;;;;4844820;29;20049;-77
2022/02/18 12:24:31;;;;;;;7.57;1.30;;;17.30;66.70;;;;;;4842531;29;20061;-75
2022/02/18 12:27:18;;;;;;;7.95;1.10;;;17.30;66.90;;;;;;4842560;29;20107;-76
2022/02/18 12:29:45;;;;;;;5.97;1.17;;;17.30;66.70;;;;;;4844219;29;20050;-76
2022/02/18 12:32:11;;;;;;;9.48;1.30;;;17.20;66.90;;;;;;4844477;29;20126;-77
2022/02/18 12:34:38;;;;;;;7.82;1.20;;;17.20;67.10;;;;;;4843619;29;20054;-78
2022/02/18 12:37:08;;;;;;;9.30;1.25;;;17.20;67.20;;;;;;4869103;29;20049;-75
2022/02/18 12:39:41;;;;;;;6.85;1.45;;;17.20;66.30;;;;;;4847791;29;20065;-76
2022/02/18 12:42:10;;;;;;;5.93;1.42;;;17.10;66.00;;;;;;4861473;29;20057;-75
2022/02/18 12:44:57;;;;;;;7.95;1.50;;;17.10;66.00;;;;;;4880661;29;20076;-77
2022/02/18 12:47:33;;;;;;;8.65;1.27;;;17.10;65.90;;;;;;4864853;29;20061;-75